sensor_id;sensor_type;location;lat;lon;timestamp;P1;durP1;ratioP1;P2;durP2;ratioP2
19905;SDS011;10115;50.906;4.438;2023-04-24T00:01:15;23.70;;;9.43;;
19905;SDS011;10115;50.906;4.438;2023-04-24T00:03:42;11.37;;;10.17;;
19905;SDS011;10115;50.906;4.438;2023-04-24T00:06:08;10.80;;;9.73;;
19905;SDS011;10115;50.906;4.438;2023-04-24T00:08:34;10.20;;;8.83;;
19905;SDS011;10115;50.906;4.438;2023-04-24T00:11:01;9.07;;;8.37;;
19905;SDS011;10115;50.906;4.438;2023-04-24T00:13:26;10.00;;;9.00;;
19905;SDS011;10115;50.906;4.438;2023-04-24T00:15:53;7.83;;;7.27;;
19905;SDS011;10115;50.906;4.438;2023-04-24T00:18:19;10.50;;;8.20;;
19905;SDS011;10115;50.906;4.438;2023-04-24T00:20:45;13.67;;;7.60;;
19905;SDS011;10115;50.906;4.438;2023-04-24T00:23:11;9.40;;;8.50;;
19905;SDS011;10115;50.906;4.438;2023-04-24T00:25:37;11.60;;;9.00;;
19905;SDS011;10115;50.906;4.438;2023-04-24T00:28:03;8.53;;;7.73;;
19905;SDS011;10115;50.906;4.438;2023-04-24T00:30:29;7.73;;;7.17;;
19905;SDS011;10115;50.906;4.438;2023-04-24T00:32:55;9.80;;;9.10;;
19905;SDS011;10115;50.906;4.438;2023-04-24T00:35:20;9.07;;;8.17;;
19905;SDS011;10115;50.906;4.438;2023-04-24T00:37:46;11.17;;;10.17;;
19905;SDS011;10115;50.906;4.438;2023-04-24T00:40:12;9.77;;;8.77;;
19905;SDS011;10115;50.906;4.438;2023-04-24T00:42:38;8.43;;;7.73;;
19905;SDS011;10115;50.906;4.438;2023-04-24T00:45:05;10.40;;;8.67;;
19905;SDS011;10115;50.906;4.438;2023-04-24T00:47:32;10.10;;;9.10;;
19905;SDS011;10115;50.906;4.438;2023-04-24T00:49:59;14.73;;;8.80;;
19905;SDS011;10115;50.906;4.438;2023-04-24T00:52:29;9.63;;;8.80;;
19905;SDS011;10115;50.906;4.438;2023-04-24T00:54:57;8.17;;;7.57;;
19905;SDS011;10115;50.906;4.438;2023-04-24T00:57:23;10.00;;;9.30;;
19905;SDS011;10115;50.906;4.438;2023-04-24T00:59:50;17.47;;;10.57;;
19905;SDS011;10115;50.906;4.438;2023-04-24T01:02:16;10.63;;;9.93;;
19905;SDS011;10115;50.906;4.438;2023-04-24T01:04:42;9.60;;;8.90;;
19905;SDS011;10115;50.906;4.438;2023-04-24T01:07:09;9.87;;;9.07;;
19905;SDS011;10115;50.906;4.438;2023-04-24T01:09:42;13.17;;;8.03;;
19905;SDS011;10115;50.906;4.438;2023-04-24T01:12:12;9.27;;;8.37;;
19905;SDS011;10115;50.906;4.438;2023-04-24T01:14:37;11.90;;;8.87;;
19905;SDS011;10115;50.906;4.438;2023-04-24T01:17:03;10.73;;;9.97;;
19905;SDS011;10115;50.906;4.438;2023-04-24T01:19:29;6.60;;;6.20;;
19905;SDS011;10115;50.906;4.438;2023-04-24T01:21:56;7.83;;;7.03;;
19905;SDS011;10115;50.906;4.438;2023-04-24T01:24:23;9.57;;;8.60;;
19905;SDS011;10115;50.906;4.438;2023-04-24T01:26:49;9.23;;;8.53;;
19905;SDS011;10115;50.906;4.438;2023-04-24T01:29:15;10.07;;;8.83;;
19905;SDS011;10115;50.906;4.438;2023-04-24T01:31:41;9.93;;;8.83;;
19905;SDS011;10115;50.906;4.438;2023-04-24T01:34:07;8.43;;;7.77;;
19905;SDS011;10115;50.906;4.438;2023-04-24T01:36:33;9.93;;;8.70;;
19905;SDS011;10115;50.906;4.438;2023-04-24T01:39:00;9.77;;;8.90;;
19905;SDS011;10115;50.906;4.438;2023-04-24T01:41:26;7.80;;;7.33;;
19905;SDS011;10115;50.906;4.438;2023-04-24T01:43:52;8.00;;;7.40;;
19905;SDS011;10115;50.906;4.438;2023-04-24T01:46:19;6.93;;;6.43;;
19905;SDS011;10115;50.906;4.438;2023-04-24T01:48:45;7.37;;;6.97;;
19905;SDS011;10115;50.906;4.438;2023-04-24T01:51:11;9.13;;;8.33;;
19905;SDS011;10115;50.906;4.438;2023-04-24T01:53:37;11.73;;;8.87;;
19905;SDS011;10115;50.906;4.438;2023-04-24T01:56:02;8.07;;;7.53;;
19905;SDS011;10115;50.906;4.438;2023-04-24T01:58:28;7.13;;;6.80;;
19905;SDS011;10115;50.906;4.438;2023-04-24T02:00:56;7.87;;;7.10;;
19905;SDS011;10115;50.906;4.438;2023-04-24T02:03:23;8.07;;;7.40;;
19905;SDS011;10115;50.906;4.438;2023-04-24T02:05:51;7.40;;;6.63;;
19905;SDS011;10115;50.906;4.438;2023-04-24T02:08:16;10.80;;;7.97;;
19905;SDS011;10115;50.906;4.438;2023-04-24T02:10:42;9.50;;;7.83;;
19905;SDS011;10115;50.906;4.438;2023-04-24T02:13:08;7.07;;;6.57;;
19905;SDS011;10115;50.906;4.438;2023-04-24T02:15:33;9.00;;;8.10;;
19905;SDS011;10115;50.906;4.438;2023-04-24T02:18:00;9.00;;;8.20;;
19905;SDS011;10115;50.906;4.438;2023-04-24T02:20:26;10.87;;;8.07;;
19905;SDS011;10115;50.906;4.438;2023-04-24T02:22:52;7.27;;;6.73;;
19905;SDS011;10115;50.906;4.438;2023-04-24T02:25:18;7.13;;;6.70;;
19905;SDS011;10115;50.906;4.438;2023-04-24T02:27:43;9.13;;;8.30;;
19905;SDS011;10115;50.906;4.438;2023-04-24T02:30:09;8.50;;;7.90;;
19905;SDS011;10115;50.906;4.438;2023-04-24T02:32:35;9.60;;;8.70;;
19905;SDS011;10115;50.906;4.438;2023-04-24T02:35:01;7.30;;;6.80;;
19905;SDS011;10115;50.906;4.438;2023-04-24T02:37:27;8.27;;;7.57;;
19905;SDS011;10115;50.906;4.438;2023-04-24T02:39:52;10.27;;;9.20;;
19905;SDS011;10115;50.906;4.438;2023-04-24T02:42:18;7.67;;;6.97;;
19905;SDS011;10115;50.906;4.438;2023-04-24T02:44:43;9.97;;;8.97;;
19905;SDS011;10115;50.906;4.438;2023-04-24T02:47:09;6.73;;;6.33;;
19905;SDS011;10115;50.906;4.438;2023-04-24T02:49:35;10.53;;;9.53;;
19905;SDS011;10115;50.906;4.438;2023-04-24T02:52:00;7.80;;;7.30;;
19905;SDS011;10115;50.906;4.438;2023-04-24T02:54:26;6.70;;;6.30;;
19905;SDS011;10115;50.906;4.438;2023-04-24T02:56:52;6.63;;;6.23;;
19905;SDS011;10115;50.906;4.438;2023-04-24T02:59:17;9.80;;;7.47;;
19905;SDS011;10115;50.906;4.438;2023-04-24T03:01:43;8.27;;;7.57;;
19905;SDS011;10115;50.906;4.438;2023-04-24T03:04:08;10.03;;;9.03;;
19905;SDS011;10115;50.906;4.438;2023-04-24T03:06:35;7.73;;;7.13;;
19905;SDS011;10115;50.906;4.438;2023-04-24T03:09:01;10.47;;;9.47;;
19905;SDS011;10115;50.906;4.438;2023-04-24T03:11:28;12.13;;;10.97;;
19905;SDS011;10115;50.906;4.438;2023-04-24T03:13:54;9.20;;;8.40;;
19905;SDS011;10115;50.906;4.438;2023-04-24T03:16:19;6.63;;;6.23;;
19905;SDS011;10115;50.906;4.438;2023-04-24T03:18:45;7.27;;;6.87;;
19905;SDS011;10115;50.906;4.438;2023-04-24T03:21:11;9.30;;;8.47;;
19905;SDS011;10115;50.906;4.438;2023-04-24T03:23:37;9.97;;;9.07;;
19905;SDS011;10115;50.906;4.438;2023-04-24T03:26:03;9.57;;;8.50;;
19905;SDS011;10115;50.906;4.438;2023-04-24T03:28:29;8.07;;;7.63;;
19905;SDS011;10115;50.906;4.438;2023-04-24T03:30:54;7.90;;;7.33;;
19905;SDS011;10115;50.906;4.438;2023-04-24T03:33:20;7.03;;;6.63;;
19905;SDS011;10115;50.906;4.438;2023-04-24T03:35:45;9.23;;;7.60;;
19905;SDS011;10115;50.906;4.438;2023-04-24T03:38:11;7.10;;;6.60;;
19905;SDS011;10115;50.906;4.438;2023-04-24T03:40:37;8.90;;;8.20;;
19905;SDS011;10115;50.906;4.438;2023-04-24T03:43:02;5.90;;;5.50;;
19905;SDS011;10115;50.906;4.438;2023-04-24T03:45:28;6.50;;;6.10;;
19905;SDS011;10115;50.906;4.438;2023-04-24T03:47:54;6.23;;;5.77;;
19905;SDS011;10115;50.906;4.438;2023-04-24T03:50:19;7.23;;;6.10;;
19905;SDS011;10115;50.906;4.438;2023-04-24T03:52:45;7.20;;;6.70;;
19905;SDS011;10115;50.906;4.438;2023-04-24T03:55:11;6.97;;;6.57;;
19905;SDS011;10115;50.906;4.438;2023-04-24T03:57:38;6.60;;;6.10;;
19905;SDS011;10115;50.906;4.438;2023-04-24T04:00:05;6.27;;;5.97;;
19905;SDS011;10115;50.906;4.438;2023-04-24T04:02:31;7.20;;;6.70;;
19905;SDS011;10115;50.906;4.438;2023-04-24T04:04:57;6.03;;;5.73;;
19905;SDS011;10115;50.906;4.438;2023-04-24T04:07:23;5.23;;;5.03;;
19905;SDS011;10115;50.906;4.438;2023-04-24T04:09:49;5.83;;;5.53;;
19905;SDS011;10115;50.906;4.438;2023-04-24T04:12:15;6.17;;;5.87;;
19905;SDS011;10115;50.906;4.438;2023-04-24T04:14:41;7.13;;;6.70;;
19905;SDS011;10115;50.906;4.438;2023-04-24T04:17:06;5.67;;;5.27;;
19905;SDS011;10115;50.906;4.438;2023-04-24T04:19:32;6.97;;;6.57;;
19905;SDS011;10115;50.906;4.438;2023-04-24T04:21:58;5.50;;;5.20;;
19905;SDS011;10115;50.906;4.438;2023-04-24T04:24:24;5.67;;;5.47;;
19905;SDS011;10115;50.906;4.438;2023-04-24T04:26:51;6.20;;;5.83;;
19905;SDS011;10115;50.906;4.438;2023-04-24T04:29:17;5.47;;;5.13;;
19905;SDS011;10115;50.906;4.438;2023-04-24T04:31:43;6.03;;;5.73;;
19905;SDS011;10115;50.906;4.438;2023-04-24T04:34:09;5.73;;;5.43;;
19905;SDS011;10115;50.906;4.438;2023-04-24T04:36:36;6.50;;;6.10;;
19905;SDS011;10115;50.906;4.438;2023-04-24T04:39:05;5.93;;;5.60;;
19905;SDS011;10115;50.906;4.438;2023-04-24T04:41:31;7.40;;;6.87;;
19905;SDS011;10115;50.906;4.438;2023-04-24T04:43:57;5.97;;;5.67;;
19905;SDS011;10115;50.906;4.438;2023-04-24T04:46:25;7.73;;;7.23;;
19905;SDS011;10115;50.906;4.438;2023-04-24T04:48:52;7.00;;;6.60;;
19905;SDS011;10115;50.906;4.438;2023-04-24T04:51:18;6.60;;;6.20;;
19905;SDS011;10115;50.906;4.438;2023-04-24T04:53:43;7.13;;;6.57;;
19905;SDS011;10115;50.906;4.438;2023-04-24T04:56:09;6.70;;;6.37;;
19905;SDS011;10115;50.906;4.438;2023-04-24T04:58:35;8.27;;;7.47;;
19905;SDS011;10115;50.906;4.438;2023-04-24T05:01:01;6.43;;;5.93;;
19905;SDS011;10115;50.906;4.438;2023-04-24T05:03:27;7.27;;;6.77;;
19905;SDS011;10115;50.906;4.438;2023-04-24T05:05:53;6.40;;;6.10;;
19905;SDS011;10115;50.906;4.438;2023-04-24T05:08:18;6.20;;;5.80;;
19905;SDS011;10115;50.906;4.438;2023-04-24T05:10:44;7.87;;;7.37;;
19905;SDS011;10115;50.906;4.438;2023-04-24T05:13:10;5.63;;;5.43;;
19905;SDS011;10115;50.906;4.438;2023-04-24T05:15:36;6.77;;;6.27;;
19905;SDS011;10115;50.906;4.438;2023-04-24T05:18:01;8.20;;;7.63;;
19905;SDS011;10115;50.906;4.438;2023-04-24T05:20:27;8.73;;;7.93;;
19905;SDS011;10115;50.906;4.438;2023-04-24T05:22:53;7.87;;;7.37;;
19905;SDS011;10115;50.906;4.438;2023-04-24T05:25:19;9.20;;;8.80;;
19905;SDS011;10115;50.906;4.438;2023-04-24T05:27:44;13.13;;;8.37;;
19905;SDS011;10115;50.906;4.438;2023-04-24T05:30:11;7.20;;;6.77;;
19905;SDS011;10115;50.906;4.438;2023-04-24T05:32:37;6.97;;;6.53;;
19905;SDS011;10115;50.906;4.438;2023-04-24T05:35:03;7.30;;;6.73;;
19905;SDS011;10115;50.906;4.438;2023-04-24T05:37:29;8.53;;;7.47;;
19905;SDS011;10115;50.906;4.438;2023-04-24T05:39:54;7.80;;;7.17;;
19905;SDS011;10115;50.906;4.438;2023-04-24T05:42:20;6.77;;;6.27;;
19905;SDS011;10115;50.906;4.438;2023-04-24T05:44:46;9.17;;;8.57;;
19905;SDS011;10115;50.906;4.438;2023-04-24T05:47:11;8.47;;;7.93;;
19905;SDS011;10115;50.906;4.438;2023-04-24T05:49:37;7.67;;;7.10;;
19905;SDS011;10115;50.906;4.438;2023-04-24T05:52:03;8.03;;;7.53;;
19905;SDS011;10115;50.906;4.438;2023-04-24T05:54:30;8.17;;;7.67;;
19905;SDS011;10115;50.906;4.438;2023-04-24T05:56:56;7.27;;;6.97;;
19905;SDS011;10115;50.906;4.438;2023-04-24T05:59:21;7.73;;;7.23;;
19905;SDS011;10115;50.906;4.438;2023-04-24T06:01:47;13.57;;;8.03;;
19905;SDS011;10115;50.906;4.438;2023-04-24T06:04:13;9.63;;;8.93;;
19905;SDS011;10115;50.906;4.438;2023-04-24T06:06:38;13.37;;;12.30;;
19905;SDS011;10115;50.906;4.438;2023-04-24T06:09:05;13.20;;;11.53;;
19905;SDS011;10115;50.906;4.438;2023-04-24T06:11:30;7.70;;;7.10;;
19905;SDS011;10115;50.906;4.438;2023-04-24T06:13:56;12.70;;;11.80;;
19905;SDS011;10115;50.906;4.438;2023-04-24T06:16:22;14.63;;;13.20;;
19905;SDS011;10115;50.906;4.438;2023-04-24T06:18:48;12.23;;;11.63;;
19905;SDS011;10115;50.906;4.438;2023-04-24T06:21:17;12.67;;;11.77;;
19905;SDS011;10115;50.906;4.438;2023-04-24T06:23:42;13.17;;;12.07;;
19905;SDS011;10115;50.906;4.438;2023-04-24T06:26:08;12.83;;;12.13;;
19905;SDS011;10115;50.906;4.438;2023-04-24T06:28:34;12.40;;;11.67;;
19905;SDS011;10115;50.906;4.438;2023-04-24T06:31:00;12.17;;;11.47;;
19905;SDS011;10115;50.906;4.438;2023-04-24T06:33:25;11.07;;;10.47;;
19905;SDS011;10115;50.906;4.438;2023-04-24T06:35:51;13.00;;;12.00;;
19905;SDS011;10115;50.906;4.438;2023-04-24T06:38:17;12.87;;;11.83;;
19905;SDS011;10115;50.906;4.438;2023-04-24T06:40:43;12.60;;;11.93;;
19905;SDS011;10115;50.906;4.438;2023-04-24T06:43:08;11.57;;;10.77;;
19905;SDS011;10115;50.906;4.438;2023-04-24T06:45:35;12.83;;;12.07;;
19905;SDS011;10115;50.906;4.438;2023-04-24T06:48:01;12.53;;;11.47;;
19905;SDS011;10115;50.906;4.438;2023-04-24T06:50:26;11.80;;;11.13;;
19905;SDS011;10115;50.906;4.438;2023-04-24T06:52:52;11.63;;;11.00;;
19905;SDS011;10115;50.906;4.438;2023-04-24T06:55:18;10.17;;;9.67;;
19905;SDS011;10115;50.906;4.438;2023-04-24T06:57:43;12.40;;;11.57;;
19905;SDS011;10115;50.906;4.438;2023-04-24T07:00:09;10.17;;;9.67;;
19905;SDS011;10115;50.906;4.438;2023-04-24T07:02:36;12.93;;;12.03;;
19905;SDS011;10115;50.906;4.438;2023-04-24T07:05:02;10.10;;;9.43;;
19905;SDS011;10115;50.906;4.438;2023-04-24T07:07:28;8.97;;;8.27;;
19905;SDS011;10115;50.906;4.438;2023-04-24T07:09:54;7.53;;;6.67;;
19905;SDS011;10115;50.906;4.438;2023-04-24T07:12:21;7.80;;;7.30;;
19905;SDS011;10115;50.906;4.438;2023-04-24T07:14:47;9.40;;;8.20;;
19905;SDS011;10115;50.906;4.438;2023-04-24T07:17:13;8.50;;;7.70;;
19905;SDS011;10115;50.906;4.438;2023-04-24T07:19:40;10.17;;;8.47;;
19905;SDS011;10115;50.906;4.438;2023-04-24T07:22:06;6.87;;;6.57;;
19905;SDS011;10115;50.906;4.438;2023-04-24T07:24:32;13.40;;;7.03;;
19905;SDS011;10115;50.906;4.438;2023-04-24T07:26:58;18.00;;;7.30;;
19905;SDS011;10115;50.906;4.438;2023-04-24T07:29:24;7.80;;;7.17;;
19905;SDS011;10115;50.906;4.438;2023-04-24T07:31:50;7.70;;;7.10;;
19905;SDS011;10115;50.906;4.438;2023-04-24T07:34:16;7.60;;;7.13;;
19905;SDS011;10115;50.906;4.438;2023-04-24T07:36:42;6.90;;;6.57;;
19905;SDS011;10115;50.906;4.438;2023-04-24T07:39:07;12.63;;;11.93;;
19905;SDS011;10115;50.906;4.438;2023-04-24T07:41:34;10.83;;;10.33;;
19905;SDS011;10115;50.906;4.438;2023-04-24T07:43:59;10.83;;;10.33;;
19905;SDS011;10115;50.906;4.438;2023-04-24T07:46:26;7.90;;;7.50;;
19905;SDS011;10115;50.906;4.438;2023-04-24T07:48:54;11.67;;;10.93;;
19905;SDS011;10115;50.906;4.438;2023-04-24T07:51:20;39.83;;;12.43;;
19905;SDS011;10115;50.906;4.438;2023-04-24T07:53:46;11.70;;;10.83;;
19905;SDS011;10115;50.906;4.438;2023-04-24T07:56:12;9.27;;;8.70;;
19905;SDS011;10115;50.906;4.438;2023-04-24T07:58:38;10.43;;;9.73;;
19905;SDS011;10115;50.906;4.438;2023-04-24T08:01:04;11.60;;;10.77;;
19905;SDS011;10115;50.906;4.438;2023-04-24T08:03:30;8.93;;;8.43;;
19905;SDS011;10115;50.906;4.438;2023-04-24T08:05:55;9.73;;;9.13;;
19905;SDS011;10115;50.906;4.438;2023-04-24T08:08:21;9.83;;;9.13;;
19905;SDS011;10115;50.906;4.438;2023-04-24T08:10:48;11.20;;;10.63;;
19905;SDS011;10115;50.906;4.438;2023-04-24T08:13:14;11.30;;;10.50;;
19905;SDS011;10115;50.906;4.438;2023-04-24T08:15:40;11.13;;;10.50;;
19905;SDS011;10115;50.906;4.438;2023-04-24T08:18:06;11.87;;;11.03;;
19905;SDS011;10115;50.906;4.438;2023-04-24T08:20:32;11.50;;;11.00;;
19905;SDS011;10115;50.906;4.438;2023-04-24T08:22:58;8.80;;;8.30;;
19905;SDS011;10115;50.906;4.438;2023-04-24T08:25:23;10.57;;;9.80;;
19905;SDS011;10115;50.906;4.438;2023-04-24T08:27:50;9.43;;;8.87;;
19905;SDS011;10115;50.906;4.438;2023-04-24T08:30:16;10.57;;;9.87;;
19905;SDS011;10115;50.906;4.438;2023-04-24T08:32:42;10.57;;;10.07;;
19905;SDS011;10115;50.906;4.438;2023-04-24T08:35:08;7.77;;;7.47;;
19905;SDS011;10115;50.906;4.438;2023-04-24T08:37:34;18.33;;;11.43;;
19905;SDS011;10115;50.906;4.438;2023-04-24T08:40:00;6.87;;;6.57;;
19905;SDS011;10115;50.906;4.438;2023-04-24T08:42:31;7.47;;;7.07;;
19905;SDS011;10115;50.906;4.438;2023-04-24T08:44:58;7.43;;;7.03;;
19905;SDS011;10115;50.906;4.438;2023-04-24T08:47:24;6.83;;;6.53;;
19905;SDS011;10115;50.906;4.438;2023-04-24T08:49:51;10.30;;;7.57;;
19905;SDS011;10115;50.906;4.438;2023-04-24T08:52:18;8.77;;;8.00;;
19905;SDS011;10115;50.906;4.438;2023-04-24T08:54:45;9.27;;;8.77;;
19905;SDS011;10115;50.906;4.438;2023-04-24T08:57:12;27.43;;;8.80;;
19905;SDS011;10115;50.906;4.438;2023-04-24T08:59:39;7.40;;;7.03;;
19905;SDS011;10115;50.906;4.438;2023-04-24T09:02:05;10.10;;;9.07;;
19905;SDS011;10115;50.906;4.438;2023-04-24T09:04:34;10.13;;;9.30;;
19905;SDS011;10115;50.906;4.438;2023-04-24T09:07:01;8.07;;;7.67;;
19905;SDS011;10115;50.906;4.438;2023-04-24T09:09:29;7.30;;;6.93;;
19905;SDS011;10115;50.906;4.438;2023-04-24T09:11:56;9.57;;;8.70;;
19905;SDS011;10115;50.906;4.438;2023-04-24T09:14:23;6.73;;;6.33;;
19905;SDS011;10115;50.906;4.438;2023-04-24T09:16:50;6.50;;;6.10;;
19905;SDS011;10115;50.906;4.438;2023-04-24T09:19:15;6.20;;;5.90;;
19905;SDS011;10115;50.906;4.438;2023-04-24T09:21:41;11.03;;;8.13;;
19905;SDS011;10115;50.906;4.438;2023-04-24T09:24:18;6.73;;;6.33;;
19905;SDS011;10115;50.906;4.438;2023-04-24T09:26:47;5.60;;;5.40;;
19905;SDS011;10115;50.906;4.438;2023-04-24T09:29:18;7.57;;;7.17;;
19905;SDS011;10115;50.906;4.438;2023-04-24T09:31:44;13.30;;;7.93;;
19905;SDS011;10115;50.906;4.438;2023-04-24T09:34:10;15.90;;;6.57;;
19905;SDS011;10115;50.906;4.438;2023-04-24T09:39:07;7.97;;;7.27;;
19905;SDS011;10115;50.906;4.438;2023-04-24T09:41:47;5.97;;;5.67;;
19905;SDS011;10115;50.906;4.438;2023-04-24T09:44:17;6.10;;;5.80;;
19905;SDS011;10115;50.906;4.438;2023-04-24T09:46:57;6.60;;;6.30;;
19905;SDS011;10115;50.906;4.438;2023-04-24T09:49:25;6.13;;;5.83;;
19905;SDS011;10115;50.906;4.438;2023-04-24T09:51:51;6.13;;;5.83;;
19905;SDS011;10115;50.906;4.438;2023-04-24T09:54:18;6.37;;;5.97;;
19905;SDS011;10115;50.906;4.438;2023-04-24T09:56:46;6.67;;;6.13;;
19905;SDS011;10115;50.906;4.438;2023-04-24T09:59:16;11.30;;;6.90;;
19905;SDS011;10115;50.906;4.438;2023-04-24T10:01:43;19.23;;;7.17;;
19905;SDS011;10115;50.906;4.438;2023-04-24T10:06:43;5.80;;;5.60;;
19905;SDS011;10115;50.906;4.438;2023-04-24T10:09:09;5.77;;;5.37;;
19905;SDS011;10115;50.906;4.438;2023-04-24T10:11:36;6.10;;;5.80;;
19905;SDS011;10115;50.906;4.438;2023-04-24T10:14:06;5.77;;;5.57;;
19905;SDS011;10115;50.906;4.438;2023-04-24T10:16:32;6.23;;;5.93;;
19905;SDS011;10115;50.906;4.438;2023-04-24T10:18:58;5.93;;;5.53;;
19905;SDS011;10115;50.906;4.438;2023-04-24T10:21:25;6.07;;;5.77;;
19905;SDS011;10115;50.906;4.438;2023-04-24T10:23:52;6.63;;;6.30;;
19905;SDS011;10115;50.906;4.438;2023-04-24T10:26:19;5.47;;;5.27;;
19905;SDS011;10115;50.906;4.438;2023-04-24T10:28:45;6.20;;;5.80;;
19905;SDS011;10115;50.906;4.438;2023-04-24T10:31:12;6.03;;;5.67;;
19905;SDS011;10115;50.906;4.438;2023-04-24T10:33:42;5.30;;;5.10;;
19905;SDS011;10115;50.906;4.438;2023-04-24T10:36:09;6.70;;;6.30;;
19905;SDS011;10115;50.906;4.438;2023-04-24T10:38:36;7.63;;;6.40;;
19905;SDS011;10115;50.906;4.438;2023-04-24T10:41:09;7.03;;;6.63;;
19905;SDS011;10115;50.906;4.438;2023-04-24T10:43:41;5.83;;;5.53;;
19905;SDS011;10115;50.906;4.438;2023-04-24T10:46:07;9.07;;;7.00;;
19905;SDS011;10115;50.906;4.438;2023-04-24T10:48:35;6.03;;;5.73;;
19905;SDS011;10115;50.906;4.438;2023-04-24T10:51:10;7.40;;;6.70;;
19905;SDS011;10115;50.906;4.438;2023-04-24T10:53:37;6.50;;;6.17;;
19905;SDS011;10115;50.906;4.438;2023-04-24T10:56:04;7.10;;;6.70;;
19905;SDS011;10115;50.906;4.438;2023-04-24T10:58:40;5.57;;;5.37;;
19905;SDS011;10115;50.906;4.438;2023-04-24T11:01:24;7.03;;;6.53;;
19905;SDS011;10115;50.906;4.438;2023-04-24T11:03:55;6.77;;;6.33;;
19905;SDS011;10115;50.906;4.438;2023-04-24T11:06:35;6.33;;;6.03;;
19905;SDS011;10115;50.906;4.438;2023-04-24T11:09:03;5.87;;;5.67;;
19905;SDS011;10115;50.906;4.438;2023-04-24T11:11:33;6.20;;;5.90;;
19905;SDS011;10115;50.906;4.438;2023-04-24T11:14:01;7.27;;;6.57;;
19905;SDS011;10115;50.906;4.438;2023-04-24T11:16:30;5.83;;;5.57;;
19905;SDS011;10115;50.906;4.438;2023-04-24T11:19:21;7.00;;;6.50;;
19905;SDS011;10115;50.906;4.438;2023-04-24T11:21:53;6.87;;;6.40;;
19905;SDS011;10115;50.906;4.438;2023-04-24T11:24:24;5.73;;;5.43;;
19905;SDS011;10115;50.906;4.438;2023-04-24T11:26:54;5.63;;;5.43;;
19905;SDS011;10115;50.906;4.438;2023-04-24T11:35:12;5.57;;;5.37;;
19905;SDS011;10115;50.906;4.438;2023-04-24T11:37:43;5.87;;;5.57;;
19905;SDS011;10115;50.906;4.438;2023-04-24T11:40:17;8.10;;;7.60;;
19905;SDS011;10115;50.906;4.438;2023-04-24T11:42:46;7.83;;;7.43;;
19905;SDS011;10115;50.906;4.438;2023-04-24T11:45:14;8.63;;;7.90;;
19905;SDS011;10115;50.906;4.438;2023-04-24T11:47:42;6.77;;;6.37;;
19905;SDS011;10115;50.906;4.438;2023-04-24T11:50:10;6.87;;;6.23;;
19905;SDS011;10115;50.906;4.438;2023-04-24T11:52:38;6.57;;;5.87;;
19905;SDS011;10115;50.906;4.438;2023-04-24T11:55:12;7.10;;;6.73;;
19905;SDS011;10115;50.906;4.438;2023-04-24T11:57:52;6.97;;;6.67;;
19905;SDS011;10115;50.906;4.438;2023-04-24T12:00:22;6.87;;;6.47;;
19905;SDS011;10115;50.906;4.438;2023-04-24T12:02:50;5.93;;;5.63;;
19905;SDS011;10115;50.906;4.438;2023-04-24T12:05:25;6.23;;;5.93;;
19905;SDS011;10115;50.906;4.438;2023-04-24T12:07:52;5.83;;;5.63;;
19905;SDS011;10115;50.906;4.438;2023-04-24T12:10:22;5.67;;;5.47;;
19905;SDS011;10115;50.906;4.438;2023-04-24T12:12:49;6.53;;;6.03;;
19905;SDS011;10115;50.906;4.438;2023-04-24T12:15:16;5.63;;;5.43;;
19905;SDS011;10115;50.906;4.438;2023-04-24T12:17:43;6.53;;;6.23;;
19905;SDS011;10115;50.906;4.438;2023-04-24T12:20:10;7.70;;;7.20;;
19905;SDS011;10115;50.906;4.438;2023-04-24T12:25:11;6.30;;;5.90;;
19905;SDS011;10115;50.906;4.438;2023-04-24T12:27:38;13.73;;;5.97;;
19905;SDS011;10115;50.906;4.438;2023-04-24T12:30:04;5.67;;;5.33;;
19905;SDS011;10115;50.906;4.438;2023-04-24T12:32:31;5.43;;;5.23;;
19905;SDS011;10115;50.906;4.438;2023-04-24T12:34:57;6.00;;;5.70;;
19905;SDS011;10115;50.906;4.438;2023-04-24T12:37:24;5.50;;;5.20;;
19905;SDS011;10115;50.906;4.438;2023-04-24T12:40:06;5.60;;;5.30;;
19905;SDS011;10115;50.906;4.438;2023-04-24T12:42:34;6.17;;;5.87;;
19905;SDS011;10115;50.906;4.438;2023-04-24T12:45:04;5.23;;;5.03;;
19905;SDS011;10115;50.906;4.438;2023-04-24T12:47:31;5.90;;;5.50;;
19905;SDS011;10115;50.906;4.438;2023-04-24T12:49:58;5.83;;;5.40;;
19905;SDS011;10115;50.906;4.438;2023-04-24T12:52:25;5.20;;;5.00;;
19905;SDS011;10115;50.906;4.438;2023-04-24T12:54:52;5.63;;;5.33;;
19905;SDS011;10115;50.906;4.438;2023-04-24T12:57:20;7.20;;;6.50;;
19905;SDS011;10115;50.906;4.438;2023-04-24T12:59:46;7.07;;;6.50;;
19905;SDS011;10115;50.906;4.438;2023-04-24T13:02:12;12.83;;;6.17;;
19905;SDS011;10115;50.906;4.438;2023-04-24T13:04:38;5.53;;;5.23;;
19905;SDS011;10115;50.906;4.438;2023-04-24T13:07:04;9.47;;;6.07;;
19905;SDS011;10115;50.906;4.438;2023-04-24T13:09:30;6.60;;;6.00;;
19905;SDS011;10115;50.906;4.438;2023-04-24T13:11:56;5.50;;;5.20;;
19905;SDS011;10115;50.906;4.438;2023-04-24T13:14:22;5.30;;;5.00;;
19905;SDS011;10115;50.906;4.438;2023-04-24T13:16:48;6.10;;;5.70;;
19905;SDS011;10115;50.906;4.438;2023-04-24T13:19:14;5.27;;;5.07;;
19905;SDS011;10115;50.906;4.438;2023-04-24T13:21:40;5.20;;;4.93;;
19905;SDS011;10115;50.906;4.438;2023-04-24T13:24:06;5.83;;;5.53;;
19905;SDS011;10115;50.906;4.438;2023-04-24T13:26:32;5.10;;;4.90;;
19905;SDS011;10115;50.906;4.438;2023-04-24T13:28:58;5.43;;;5.23;;
19905;SDS011;10115;50.906;4.438;2023-04-24T13:31:24;5.57;;;5.37;;
19905;SDS011;10115;50.906;4.438;2023-04-24T13:33:50;5.13;;;4.80;;
19905;SDS011;10115;50.906;4.438;2023-04-24T13:36:17;5.73;;;5.30;;
19905;SDS011;10115;50.906;4.438;2023-04-24T13:38:46;4.67;;;4.47;;
19905;SDS011;10115;50.906;4.438;2023-04-24T13:41:11;5.27;;;4.97;;
19905;SDS011;10115;50.906;4.438;2023-04-24T13:43:37;5.37;;;5.07;;
19905;SDS011;10115;50.906;4.438;2023-04-24T13:46:03;4.93;;;4.67;;
19905;SDS011;10115;50.906;4.438;2023-04-24T13:48:29;5.33;;;5.03;;
19905;SDS011;10115;50.906;4.438;2023-04-24T13:50:57;4.83;;;4.63;;
19905;SDS011;10115;50.906;4.438;2023-04-24T13:53:22;6.47;;;5.97;;
19905;SDS011;10115;50.906;4.438;2023-04-24T13:55:48;5.80;;;5.40;;
19905;SDS011;10115;50.906;4.438;2023-04-24T13:58:14;10.23;;;9.73;;
19905;SDS011;10115;50.906;4.438;2023-04-24T14:00:40;13.77;;;13.07;;
19905;SDS011;10115;50.906;4.438;2023-04-24T14:03:05;6.13;;;5.83;;
19905;SDS011;10115;50.906;4.438;2023-04-24T14:05:31;7.30;;;7.00;;
19905;SDS011;10115;50.906;4.438;2023-04-24T14:07:57;5.90;;;5.60;;
19905;SDS011;10115;50.906;4.438;2023-04-24T14:10:23;5.93;;;5.53;;
19905;SDS011;10115;50.906;4.438;2023-04-24T14:12:49;5.77;;;5.47;;
19905;SDS011;10115;50.906;4.438;2023-04-24T14:15:15;6.90;;;6.50;;
19905;SDS011;10115;50.906;4.438;2023-04-24T14:17:41;6.10;;;5.70;;
19905;SDS011;10115;50.906;4.438;2023-04-24T14:20:07;5.63;;;5.43;;
19905;SDS011;10115;50.906;4.438;2023-04-24T14:22:34;5.80;;;5.60;;
19905;SDS011;10115;50.906;4.438;2023-04-24T14:24:59;5.50;;;5.20;;
19905;SDS011;10115;50.906;4.438;2023-04-24T14:27:25;4.67;;;4.47;;
19905;SDS011;10115;50.906;4.438;2023-04-24T14:29:51;11.33;;;6.63;;
19905;SDS011;10115;50.906;4.438;2023-04-24T14:32:17;4.90;;;4.67;;
19905;SDS011;10115;50.906;4.438;2023-04-24T14:34:43;4.80;;;4.60;;
19905;SDS011;10115;50.906;4.438;2023-04-24T14:37:09;5.00;;;4.80;;
19905;SDS011;10115;50.906;4.438;2023-04-24T14:39:34;5.67;;;5.30;;
19905;SDS011;10115;50.906;4.438;2023-04-24T14:42:00;5.10;;;4.80;;
19905;SDS011;10115;50.906;4.438;2023-04-24T14:44:26;5.30;;;5.00;;
19905;SDS011;10115;50.906;4.438;2023-04-24T14:46:52;4.97;;;4.77;;
19905;SDS011;10115;50.906;4.438;2023-04-24T14:49:18;5.20;;;5.00;;
19905;SDS011;10115;50.906;4.438;2023-04-24T14:51:44;4.83;;;4.63;;
19905;SDS011;10115;50.906;4.438;2023-04-24T14:54:10;6.67;;;6.17;;